首页
METAR-TAF:

METAR-TAF

机场 :

通孔廷国际机场

德古斯加巴, 洪都拉斯

纬度: 14-03N, 经度: 087-13W, 海拔: 994米

当前天气观测

该预报发布于14分钟前的10:00 UTC
静风
温度 16°C
湿度 88%
气压 1020 hPa
能见度10公里或以上
散云层高于2800英尺

METAR: MHTG 271000Z 00000KT 9999 SCT028 16/14 Q1020 A3012 NOSIG

时间: 04:14 (10:14 UTC)

预报

该预报发布于5小时和34分钟前的04:40 UTC
预报有效从27日的 06点(UTC)到 28日的 06点(UTC)
风速节,风向
能见度10公里或以上
散云层高于2600英尺
成为
从 27日的 08点(UTC)到 27日的 10点(UTC)
风速4节,风向
能見度: 8000
少量云层高于800英尺
散云层高于2400英尺, 塔状积云.
成为
从 27日的 14点(UTC)到 27日的 16点(UTC)
能见度10公里或以上
少量云层高于2800英尺
成为
从 27日的 18点(UTC)到 27日的 20点(UTC)
风速12节,风向
能見度: 8000
多云层高于2600英尺
多云层高于8000英尺
附近有阵雨

TAF: MHTG 270440Z 2706/2806 00000KT 9999 SCT026 TX27/2719Z TN18/2712Z BECMG 2708/2710 36004KT 8000 FEW008 SCT024TCU BECMG 2714/2716 9999 FEW028 BECMG 2718/2720 35012KT 8000 VCSH BKN026 BKN080

超过4000个机场的气象观测和天气预报(METAR&TAF报告)。

可查询的气象台以黄色和红色小点在地图上表示。

将鼠标移到小点上方,可查看气象台名称。

然后点击查看天气观测和预报。

如需切换地图:点击带黑十字的绿色按钮放大地图;点击带横线的绿色按钮缩小地图;或者点击绿色箭头查看邻近地区的地图。


METAR-TAF: